sensor_id;sensor_type;location;lat;lon;timestamp;P1;durP1;ratioP1;P2;durP2;ratioP2
61356;SDS011;47227;46.752;23.576;2022-12-29T00:01:17;49.80;;;22.40;;
61356;SDS011;47227;46.752;23.576;2022-12-29T00:03:46;44.60;;;20.20;;
61356;SDS011;47227;46.752;23.576;2022-12-29T00:06:13;41.70;;;20.60;;
61356;SDS011;47227;46.752;23.576;2022-12-29T00:08:39;38.30;;;19.60;;
61356;SDS011;47227;46.752;23.576;2022-12-29T00:11:08;43.60;;;19.90;;
61356;SDS011;47227;46.752;23.576;2022-12-29T00:13:37;41.50;;;18.10;;
61356;SDS011;47227;46.752;23.576;2022-12-29T00:16:22;38.50;;;18.60;;
61356;SDS011;47227;46.752;23.576;2022-12-29T00:18:48;31.90;;;17.90;;
61356;SDS011;47227;46.752;23.576;2022-12-29T00:21:17;33.60;;;17.10;;
61356;SDS011;47227;46.752;23.576;2022-12-29T00:24:02;38.10;;;17.40;;
61356;SDS011;47227;46.752;23.576;2022-12-29T00:26:42;34.40;;;17.70;;
61356;SDS011;47227;46.752;23.576;2022-12-29T00:29:22;40.40;;;18.20;;
61356;SDS011;47227;46.752;23.576;2022-12-29T00:32:03;35.00;;;18.40;;
61356;SDS011;47227;46.752;23.576;2022-12-29T00:34:44;41.40;;;22.00;;
61356;SDS011;47227;46.752;23.576;2022-12-29T00:37:23;39.30;;;20.00;;
61356;SDS011;47227;46.752;23.576;2022-12-29T00:40:09;45.20;;;21.00;;
61356;SDS011;47227;46.752;23.576;2022-12-29T00:42:53;37.90;;;20.60;;
61356;SDS011;47227;46.752;23.576;2022-12-29T00:45:33;46.70;;;21.70;;
61356;SDS011;47227;46.752;23.576;2022-12-29T00:48:00;45.50;;;23.70;;
61356;SDS011;47227;46.752;23.576;2022-12-29T00:50:26;51.60;;;23.00;;
61356;SDS011;47227;46.752;23.576;2022-12-29T00:52:52;41.10;;;21.10;;
61356;SDS011;47227;46.752;23.576;2022-12-29T00:55:19;39.70;;;21.40;;
61356;SDS011;47227;46.752;23.576;2022-12-29T00:57:45;41.10;;;20.60;;
61356;SDS011;47227;46.752;23.576;2022-12-29T01:00:12;40.50;;;20.80;;
61356;SDS011;47227;46.752;23.576;2022-12-29T01:02:39;40.60;;;21.80;;
61356;SDS011;47227;46.752;23.576;2022-12-29T01:05:06;46.30;;;21.60;;
61356;SDS011;47227;46.752;23.576;2022-12-29T01:07:33;40.80;;;21.00;;
61356;SDS011;47227;46.752;23.576;2022-12-29T01:10:01;40.10;;;21.10;;
61356;SDS011;47227;46.752;23.576;2022-12-29T01:12:43;40.10;;;21.10;;
61356;SDS011;47227;46.752;23.576;2022-12-29T01:15:12;38.90;;;19.90;;
61356;SDS011;47227;46.752;23.576;2022-12-29T01:17:41;38.90;;;20.90;;
61356;SDS011;47227;46.752;23.576;2022-12-29T01:20:08;39.00;;;20.00;;
61356;SDS011;47227;46.752;23.576;2022-12-29T01:22:35;37.70;;;20.20;;
61356;SDS011;47227;46.752;23.576;2022-12-29T01:25:01;38.30;;;21.00;;
61356;SDS011;47227;46.752;23.576;2022-12-29T01:27:28;40.50;;;20.90;;
61356;SDS011;47227;46.752;23.576;2022-12-29T01:29:54;40.80;;;21.50;;
61356;SDS011;47227;46.752;23.576;2022-12-29T01:32:21;36.30;;;20.90;;
61356;SDS011;47227;46.752;23.576;2022-12-29T01:34:48;38.00;;;20.80;;
61356;SDS011;47227;46.752;23.576;2022-12-29T01:37:15;43.60;;;21.80;;
61356;SDS011;47227;46.752;23.576;2022-12-29T01:39:41;38.60;;;20.00;;
61356;SDS011;47227;46.752;23.576;2022-12-29T01:42:12;38.10;;;21.10;;
61356;SDS011;47227;46.752;23.576;2022-12-29T01:44:48;41.30;;;21.30;;
61356;SDS011;47227;46.752;23.576;2022-12-29T01:47:22;36.40;;;20.10;;
61356;SDS011;47227;46.752;23.576;2022-12-29T01:49:58;37.70;;;19.10;;
61356;SDS011;47227;46.752;23.576;2022-12-29T01:52:29;37.00;;;18.60;;
61356;SDS011;47227;46.752;23.576;2022-12-29T01:55:01;36.60;;;17.90;;
61356;SDS011;47227;46.752;23.576;2022-12-29T01:57:32;34.00;;;17.50;;
61356;SDS011;47227;46.752;23.576;2022-12-29T02:00:04;35.20;;;18.30;;
61356;SDS011;47227;46.752;23.576;2022-12-29T02:02:38;31.70;;;18.20;;
61356;SDS011;47227;46.752;23.576;2022-12-29T02:05:11;31.10;;;17.40;;
61356;SDS011;47227;46.752;23.576;2022-12-29T02:07:47;31.70;;;17.40;;
61356;SDS011;47227;46.752;23.576;2022-12-29T02:10:17;34.20;;;17.80;;
61356;SDS011;47227;46.752;23.576;2022-12-29T02:12:46;32.20;;;17.50;;
61356;SDS011;47227;46.752;23.576;2022-12-29T02:15:14;34.20;;;18.70;;
61356;SDS011;47227;46.752;23.576;2022-12-29T02:17:47;32.80;;;18.60;;
61356;SDS011;47227;46.752;23.576;2022-12-29T02:20:35;35.40;;;19.20;;
61356;SDS011;47227;46.752;23.576;2022-12-29T02:23:25;33.50;;;19.00;;
61356;SDS011;47227;46.752;23.576;2022-12-29T02:26:16;35.40;;;18.70;;
61356;SDS011;47227;46.752;23.576;2022-12-29T02:29:02;36.60;;;19.20;;
61356;SDS011;47227;46.752;23.576;2022-12-29T02:31:59;38.50;;;19.90;;
61356;SDS011;47227;46.752;23.576;2022-12-29T02:34:37;39.30;;;19.60;;
61356;SDS011;47227;46.752;23.576;2022-12-29T02:37:26;39.30;;;20.30;;
61356;SDS011;47227;46.752;23.576;2022-12-29T02:40:25;35.10;;;19.80;;
61356;SDS011;47227;46.752;23.576;2022-12-29T02:43:21;37.70;;;19.80;;
61356;SDS011;47227;46.752;23.576;2022-12-29T02:45:54;37.30;;;19.70;;
61356;SDS011;47227;46.752;23.576;2022-12-29T02:48:27;39.50;;;20.80;;
61356;SDS011;47227;46.752;23.576;2022-12-29T02:51:00;39.90;;;20.90;;
61356;SDS011;47227;46.752;23.576;2022-12-29T02:53:30;39.80;;;20.70;;
61356;SDS011;47227;46.752;23.576;2022-12-29T02:56:11;36.50;;;20.50;;
61356;SDS011;47227;46.752;23.576;2022-12-29T02:58:38;43.20;;;23.00;;
61356;SDS011;47227;46.752;23.576;2022-12-29T03:01:14;39.50;;;21.20;;
61356;SDS011;47227;46.752;23.576;2022-12-29T03:03:55;39.40;;;22.00;;
61356;SDS011;47227;46.752;23.576;2022-12-29T03:06:45;42.30;;;23.00;;
61356;SDS011;47227;46.752;23.576;2022-12-29T03:15:50;40.70;;;21.60;;
61356;SDS011;47227;46.752;23.576;2022-12-29T03:18:37;41.80;;;22.30;;
61356;SDS011;47227;46.752;23.576;2022-12-29T03:21:26;45.90;;;24.40;;
61356;SDS011;47227;46.752;23.576;2022-12-29T03:24:39;47.30;;;24.10;;
61356;SDS011;47227;46.752;23.576;2022-12-29T03:27:13;51.40;;;25.10;;
61356;SDS011;47227;46.752;23.576;2022-12-29T03:29:47;47.20;;;24.40;;
61356;SDS011;47227;46.752;23.576;2022-12-29T03:32:21;42.00;;;24.00;;
61356;SDS011;47227;46.752;23.576;2022-12-29T03:34:52;42.20;;;23.40;;
61356;SDS011;47227;46.752;23.576;2022-12-29T03:37:22;48.60;;;23.30;;
61356;SDS011;47227;46.752;23.576;2022-12-29T03:39:52;39.90;;;21.10;;
61356;SDS011;47227;46.752;23.576;2022-12-29T03:42:19;40.50;;;22.00;;
61356;SDS011;47227;46.752;23.576;2022-12-29T03:44:49;38.60;;;20.60;;
61356;SDS011;47227;46.752;23.576;2022-12-29T03:47:20;35.40;;;19.90;;
61356;SDS011;47227;46.752;23.576;2022-12-29T03:49:46;38.80;;;20.20;;
61356;SDS011;47227;46.752;23.576;2022-12-29T03:52:15;33.70;;;19.00;;
61356;SDS011;47227;46.752;23.576;2022-12-29T03:54:43;34.90;;;18.80;;
61356;SDS011;47227;46.752;23.576;2022-12-29T03:57:11;35.50;;;19.50;;
61356;SDS011;47227;46.752;23.576;2022-12-29T03:59:46;42.10;;;21.00;;
61356;SDS011;47227;46.752;23.576;2022-12-29T04:02:13;37.90;;;20.20;;
61356;SDS011;47227;46.752;23.576;2022-12-29T04:04:40;37.50;;;20.20;;
61356;SDS011;47227;46.752;23.576;2022-12-29T04:07:07;34.40;;;20.00;;
61356;SDS011;47227;46.752;23.576;2022-12-29T04:09:33;41.50;;;20.60;;
61356;SDS011;47227;46.752;23.576;2022-12-29T04:12:00;35.30;;;20.70;;
61356;SDS011;47227;46.752;23.576;2022-12-29T04:14:27;38.10;;;20.80;;
61356;SDS011;47227;46.752;23.576;2022-12-29T04:16:55;40.70;;;22.00;;
61356;SDS011;47227;46.752;23.576;2022-12-29T04:19:22;41.00;;;21.70;;
61356;SDS011;47227;46.752;23.576;2022-12-29T04:21:49;40.90;;;22.30;;
61356;SDS011;47227;46.752;23.576;2022-12-29T04:24:16;43.20;;;22.20;;
61356;SDS011;47227;46.752;23.576;2022-12-29T04:26:44;44.00;;;22.30;;
61356;SDS011;47227;46.752;23.576;2022-12-29T04:29:26;39.20;;;22.10;;
61356;SDS011;47227;46.752;23.576;2022-12-29T04:32:06;42.20;;;22.70;;
61356;SDS011;47227;46.752;23.576;2022-12-29T04:34:36;44.80;;;24.20;;
61356;SDS011;47227;46.752;23.576;2022-12-29T04:37:02;37.70;;;22.00;;
61356;SDS011;47227;46.752;23.576;2022-12-29T04:39:29;44.60;;;23.00;;
61356;SDS011;47227;46.752;23.576;2022-12-29T04:41:56;43.30;;;23.10;;
61356;SDS011;47227;46.752;23.576;2022-12-29T04:44:22;45.40;;;23.30;;
61356;SDS011;47227;46.752;23.576;2022-12-29T04:47:02;44.80;;;23.80;;
61356;SDS011;47227;46.752;23.576;2022-12-29T04:49:40;44.90;;;26.10;;
61356;SDS011;47227;46.752;23.576;2022-12-29T04:52:21;47.80;;;24.00;;
61356;SDS011;47227;46.752;23.576;2022-12-29T04:54:48;45.90;;;24.00;;
61356;SDS011;47227;46.752;23.576;2022-12-29T04:57:18;49.40;;;26.70;;
61356;SDS011;47227;46.752;23.576;2022-12-29T04:59:49;48.20;;;24.60;;
61356;SDS011;47227;46.752;23.576;2022-12-29T05:02:16;48.30;;;25.70;;
61356;SDS011;47227;46.752;23.576;2022-12-29T05:04:49;48.20;;;25.50;;
61356;SDS011;47227;46.752;23.576;2022-12-29T05:07:16;44.40;;;24.50;;
61356;SDS011;47227;46.752;23.576;2022-12-29T05:09:44;49.70;;;24.50;;
61356;SDS011;47227;46.752;23.576;2022-12-29T05:12:11;47.20;;;23.40;;
61356;SDS011;47227;46.752;23.576;2022-12-29T05:14:45;41.00;;;22.00;;
61356;SDS011;47227;46.752;23.576;2022-12-29T05:17:12;39.30;;;21.10;;
61356;SDS011;47227;46.752;23.576;2022-12-29T05:19:39;46.00;;;21.30;;
61356;SDS011;47227;46.752;23.576;2022-12-29T05:22:06;41.50;;;22.30;;
61356;SDS011;47227;46.752;23.576;2022-12-29T05:24:33;42.60;;;22.50;;
61356;SDS011;47227;46.752;23.576;2022-12-29T05:27:00;35.30;;;20.60;;
61356;SDS011;47227;46.752;23.576;2022-12-29T05:29:34;37.30;;;19.80;;
61356;SDS011;47227;46.752;23.576;2022-12-29T05:32:00;39.20;;;19.80;;
61356;SDS011;47227;46.752;23.576;2022-12-29T05:34:27;37.90;;;20.40;;
61356;SDS011;47227;46.752;23.576;2022-12-29T05:36:53;36.40;;;20.80;;
61356;SDS011;47227;46.752;23.576;2022-12-29T05:39:20;40.30;;;21.80;;
61356;SDS011;47227;46.752;23.576;2022-12-29T05:41:52;38.30;;;20.80;;
61356;SDS011;47227;46.752;23.576;2022-12-29T05:44:35;39.60;;;21.60;;
61356;SDS011;47227;46.752;23.576;2022-12-29T05:47:22;40.60;;;21.20;;
61356;SDS011;47227;46.752;23.576;2022-12-29T05:50:08;43.40;;;22.80;;
61356;SDS011;47227;46.752;23.576;2022-12-29T05:52:51;44.10;;;23.10;;
61356;SDS011;47227;46.752;23.576;2022-12-29T05:55:18;44.90;;;21.80;;
61356;SDS011;47227;46.752;23.576;2022-12-29T05:57:47;45.70;;;25.00;;
61356;SDS011;47227;46.752;23.576;2022-12-29T06:00:15;49.40;;;27.20;;
61356;SDS011;47227;46.752;23.576;2022-12-29T06:02:43;44.10;;;23.30;;
61356;SDS011;47227;46.752;23.576;2022-12-29T06:05:10;42.60;;;21.60;;
61356;SDS011;47227;46.752;23.576;2022-12-29T06:07:38;44.80;;;24.80;;
61356;SDS011;47227;46.752;23.576;2022-12-29T06:10:05;42.10;;;23.00;;
61356;SDS011;47227;46.752;23.576;2022-12-29T06:12:40;43.50;;;22.20;;
61356;SDS011;47227;46.752;23.576;2022-12-29T06:15:07;40.60;;;22.90;;
61356;SDS011;47227;46.752;23.576;2022-12-29T06:17:34;49.90;;;25.40;;
61356;SDS011;47227;46.752;23.576;2022-12-29T06:20:01;49.40;;;25.70;;
61356;SDS011;47227;46.752;23.576;2022-12-29T06:22:29;46.00;;;25.10;;
61356;SDS011;47227;46.752;23.576;2022-12-29T06:24:55;45.90;;;26.00;;
61356;SDS011;47227;46.752;23.576;2022-12-29T06:27:31;48.90;;;26.90;;
61356;SDS011;47227;46.752;23.576;2022-12-29T06:29:59;49.60;;;25.80;;
61356;SDS011;47227;46.752;23.576;2022-12-29T06:32:26;50.80;;;27.40;;
61356;SDS011;47227;46.752;23.576;2022-12-29T06:34:55;45.30;;;24.30;;
61356;SDS011;47227;46.752;23.576;2022-12-29T06:37:23;48.10;;;23.40;;
61356;SDS011;47227;46.752;23.576;2022-12-29T06:39:50;42.40;;;23.10;;
61356;SDS011;47227;46.752;23.576;2022-12-29T06:42:16;37.40;;;21.60;;
61356;SDS011;47227;46.752;23.576;2022-12-29T06:44:51;43.90;;;22.90;;
61356;SDS011;47227;46.752;23.576;2022-12-29T06:47:18;42.70;;;22.80;;
61356;SDS011;47227;46.752;23.576;2022-12-29T06:49:45;40.70;;;22.60;;
61356;SDS011;47227;46.752;23.576;2022-12-29T06:52:11;48.10;;;23.80;;
61356;SDS011;47227;46.752;23.576;2022-12-29T06:54:39;41.50;;;22.80;;
61356;SDS011;47227;46.752;23.576;2022-12-29T06:57:06;44.60;;;22.60;;
61356;SDS011;47227;46.752;23.576;2022-12-29T06:59:33;42.90;;;23.30;;
61356;SDS011;47227;46.752;23.576;2022-12-29T07:01:59;46.40;;;23.70;;
61356;SDS011;47227;46.752;23.576;2022-12-29T07:04:28;48.60;;;26.80;;
61356;SDS011;47227;46.752;23.576;2022-12-29T07:06:55;45.10;;;24.40;;
61356;SDS011;47227;46.752;23.576;2022-12-29T07:09:21;43.80;;;23.30;;
61356;SDS011;47227;46.752;23.576;2022-12-29T07:11:48;47.10;;;23.80;;
61356;SDS011;47227;46.752;23.576;2022-12-29T07:14:14;48.50;;;25.90;;
61356;SDS011;47227;46.752;23.576;2022-12-29T07:16:41;44.30;;;23.10;;
61356;SDS011;47227;46.752;23.576;2022-12-29T07:19:07;43.10;;;23.50;;
61356;SDS011;47227;46.752;23.576;2022-12-29T07:21:34;41.00;;;22.90;;
61356;SDS011;47227;46.752;23.576;2022-12-29T07:24:00;46.40;;;24.30;;
61356;SDS011;47227;46.752;23.576;2022-12-29T07:26:27;44.60;;;23.40;;
61356;SDS011;47227;46.752;23.576;2022-12-29T07:29:02;47.50;;;25.20;;
61356;SDS011;47227;46.752;23.576;2022-12-29T07:31:30;47.00;;;23.90;;
61356;SDS011;47227;46.752;23.576;2022-12-29T07:33:57;40.40;;;23.00;;
61356;SDS011;47227;46.752;23.576;2022-12-29T07:36:23;42.30;;;22.00;;
61356;SDS011;47227;46.752;23.576;2022-12-29T07:38:58;37.80;;;22.30;;
61356;SDS011;47227;46.752;23.576;2022-12-29T07:41:25;45.50;;;22.80;;
61356;SDS011;47227;46.752;23.576;2022-12-29T07:43:51;39.60;;;23.10;;
61356;SDS011;47227;46.752;23.576;2022-12-29T07:46:29;45.50;;;24.70;;
61356;SDS011;47227;46.752;23.576;2022-12-29T07:49:15;53.30;;;26.30;;
61356;SDS011;47227;46.752;23.576;2022-12-29T07:51:42;51.00;;;26.40;;
61356;SDS011;47227;46.752;23.576;2022-12-29T07:54:08;49.10;;;26.80;;
61356;SDS011;47227;46.752;23.576;2022-12-29T07:56:35;53.80;;;28.40;;
61356;SDS011;47227;46.752;23.576;2022-12-29T07:59:02;54.90;;;27.50;;
61356;SDS011;47227;46.752;23.576;2022-12-29T08:01:28;61.30;;;29.90;;
61356;SDS011;47227;46.752;23.576;2022-12-29T08:03:56;58.60;;;31.40;;
61356;SDS011;47227;46.752;23.576;2022-12-29T08:06:23;55.60;;;30.20;;
61356;SDS011;47227;46.752;23.576;2022-12-29T08:08:50;57.60;;;29.60;;
61356;SDS011;47227;46.752;23.576;2022-12-29T08:11:17;54.90;;;28.60;;
61356;SDS011;47227;46.752;23.576;2022-12-29T08:13:43;55.70;;;28.30;;
61356;SDS011;47227;46.752;23.576;2022-12-29T08:16:10;57.70;;;29.00;;
61356;SDS011;47227;46.752;23.576;2022-12-29T08:18:37;57.30;;;28.30;;
61356;SDS011;47227;46.752;23.576;2022-12-29T08:21:03;51.00;;;29.20;;
61356;SDS011;47227;46.752;23.576;2022-12-29T08:23:31;71.70;;;32.30;;
61356;SDS011;47227;46.752;23.576;2022-12-29T08:25:59;55.00;;;29.30;;
61356;SDS011;47227;46.752;23.576;2022-12-29T08:28:27;47.70;;;29.00;;
61356;SDS011;47227;46.752;23.576;2022-12-29T08:30:56;54.70;;;28.10;;
61356;SDS011;47227;46.752;23.576;2022-12-29T08:33:25;53.00;;;28.20;;
61356;SDS011;47227;46.752;23.576;2022-12-29T08:35:52;55.90;;;27.90;;
61356;SDS011;47227;46.752;23.576;2022-12-29T08:38:19;59.50;;;27.70;;
61356;SDS011;47227;46.752;23.576;2022-12-29T08:40:46;51.20;;;27.60;;
61356;SDS011;47227;46.752;23.576;2022-12-29T08:43:12;53.90;;;25.50;;
61356;SDS011;47227;46.752;23.576;2022-12-29T08:45:44;48.60;;;25.50;;
61356;SDS011;47227;46.752;23.576;2022-12-29T08:48:10;59.20;;;25.10;;
61356;SDS011;47227;46.752;23.576;2022-12-29T08:50:37;53.40;;;25.60;;
61356;SDS011;47227;46.752;23.576;2022-12-29T08:53:04;49.50;;;25.80;;
61356;SDS011;47227;46.752;23.576;2022-12-29T08:55:30;61.40;;;26.50;;
61356;SDS011;47227;46.752;23.576;2022-12-29T08:57:57;52.20;;;26.20;;
61356;SDS011;47227;46.752;23.576;2022-12-29T09:00:23;49.90;;;25.80;;
61356;SDS011;47227;46.752;23.576;2022-12-29T09:02:51;51.10;;;26.90;;
61356;SDS011;47227;46.752;23.576;2022-12-29T09:05:18;45.00;;;26.70;;
61356;SDS011;47227;46.752;23.576;2022-12-29T09:07:45;46.50;;;26.30;;
61356;SDS011;47227;46.752;23.576;2022-12-29T09:10:12;50.00;;;27.60;;
61356;SDS011;47227;46.752;23.576;2022-12-29T09:12:39;52.30;;;27.60;;
61356;SDS011;47227;46.752;23.576;2022-12-29T09:15:06;49.10;;;26.70;;
61356;SDS011;47227;46.752;23.576;2022-12-29T09:17:34;45.00;;;26.60;;
61356;SDS011;47227;46.752;23.576;2022-12-29T09:20:16;48.50;;;25.30;;
61356;SDS011;47227;46.752;23.576;2022-12-29T09:22:45;48.60;;;26.10;;
61356;SDS011;47227;46.752;23.576;2022-12-29T09:25:12;49.90;;;26.10;;
61356;SDS011;47227;46.752;23.576;2022-12-29T09:27:39;47.00;;;26.90;;
61356;SDS011;47227;46.752;23.576;2022-12-29T09:30:07;42.20;;;26.50;;
61356;SDS011;47227;46.752;23.576;2022-12-29T09:32:35;44.90;;;26.80;;
61356;SDS011;47227;46.752;23.576;2022-12-29T09:35:10;47.70;;;27.10;;
61356;SDS011;47227;46.752;23.576;2022-12-29T09:37:37;46.70;;;27.30;;
61356;SDS011;47227;46.752;23.576;2022-12-29T09:40:04;53.20;;;27.40;;
61356;SDS011;47227;46.752;23.576;2022-12-29T09:42:35;57.70;;;30.60;;
61356;SDS011;47227;46.752;23.576;2022-12-29T09:47:55;44.80;;;26.40;;
61356;SDS011;47227;46.752;23.576;2022-12-29T09:50:23;47.50;;;26.00;;
61356;SDS011;47227;46.752;23.576;2022-12-29T09:53:14;49.30;;;26.30;;
61356;SDS011;47227;46.752;23.576;2022-12-29T09:55:48;43.50;;;25.10;;
61356;SDS011;47227;46.752;23.576;2022-12-29T09:58:23;42.30;;;23.40;;
61356;SDS011;47227;46.752;23.576;2022-12-29T10:03:47;54.60;;;25.70;;
61356;SDS011;47227;46.752;23.576;2022-12-29T10:06:18;47.60;;;23.80;;
61356;SDS011;47227;46.752;23.576;2022-12-29T10:11:33;37.50;;;23.40;;
61356;SDS011;47227;46.752;23.576;2022-12-29T10:14:32;40.30;;;23.60;;
61356;SDS011;47227;46.752;23.576;2022-12-29T10:17:23;42.00;;;23.30;;
61356;SDS011;47227;46.752;23.576;2022-12-29T10:25:50;37.60;;;22.20;;
61356;SDS011;47227;46.752;23.576;2022-12-29T10:28:21;42.50;;;23.70;;
61356;SDS011;47227;46.752;23.576;2022-12-29T10:30:50;43.40;;;22.90;;
61356;SDS011;47227;46.752;23.576;2022-12-29T10:33:20;41.60;;;23.10;;
61356;SDS011;47227;46.752;23.576;2022-12-29T10:35:51;41.70;;;22.40;;
61356;SDS011;47227;46.752;23.576;2022-12-29T10:38:26;37.20;;;20.50;;
61356;SDS011;47227;46.752;23.576;2022-12-29T10:41:05;40.80;;;21.30;;
61356;SDS011;47227;46.752;23.576;2022-12-29T10:43:43;45.10;;;21.60;;
61356;SDS011;47227;46.752;23.576;2022-12-29T10:46:14;40.50;;;20.50;;
61356;SDS011;47227;46.752;23.576;2022-12-29T10:48:47;36.30;;;20.10;;
61356;SDS011;47227;46.752;23.576;2022-12-29T10:51:18;36.60;;;20.80;;
61356;SDS011;47227;46.752;23.576;2022-12-29T10:53:53;42.50;;;22.80;;
61356;SDS011;47227;46.752;23.576;2022-12-29T10:56:33;46.60;;;23.00;;
61356;SDS011;47227;46.752;23.576;2022-12-29T10:59:07;36.40;;;18.90;;
61356;SDS011;47227;46.752;23.576;2022-12-29T11:01:44;27.80;;;16.40;;
61356;SDS011;47227;46.752;23.576;2022-12-29T11:04:28;27.70;;;16.10;;
61356;SDS011;47227;46.752;23.576;2022-12-29T11:07:09;35.10;;;18.80;;
61356;SDS011;47227;46.752;23.576;2022-12-29T11:09:43;32.00;;;17.70;;
61356;SDS011;47227;46.752;23.576;2022-12-29T11:12:19;32.80;;;18.70;;
61356;SDS011;47227;46.752;23.576;2022-12-29T11:15:12;31.20;;;18.80;;
61356;SDS011;47227;46.752;23.576;2022-12-29T11:17:49;36.40;;;19.20;;
61356;SDS011;47227;46.752;23.576;2022-12-29T11:20:36;33.20;;;17.50;;
61356;SDS011;47227;46.752;23.576;2022-12-29T11:23:21;29.50;;;18.60;;
61356;SDS011;47227;46.752;23.576;2022-12-29T11:26:11;32.30;;;18.30;;
61356;SDS011;47227;46.752;23.576;2022-12-29T11:28:40;31.80;;;18.40;;
61356;SDS011;47227;46.752;23.576;2022-12-29T11:31:10;28.60;;;17.50;;
61356;SDS011;47227;46.752;23.576;2022-12-29T11:33:41;28.60;;;16.70;;
61356;SDS011;47227;46.752;23.576;2022-12-29T11:36:11;25.90;;;16.10;;
61356;SDS011;47227;46.752;23.576;2022-12-29T11:38:45;23.20;;;15.00;;
61356;SDS011;47227;46.752;23.576;2022-12-29T11:41:23;25.70;;;15.30;;
61356;SDS011;47227;46.752;23.576;2022-12-29T11:43:52;29.50;;;15.60;;
61356;SDS011;47227;46.752;23.576;2022-12-29T11:46:24;29.60;;;14.70;;
61356;SDS011;47227;46.752;23.576;2022-12-29T11:48:54;28.40;;;15.50;;
61356;SDS011;47227;46.752;23.576;2022-12-29T11:51:28;32.40;;;16.20;;
61356;SDS011;47227;46.752;23.576;2022-12-29T11:54:03;28.50;;;15.00;;
61356;SDS011;47227;46.752;23.576;2022-12-29T11:56:33;28.60;;;15.90;;
61356;SDS011;47227;46.752;23.576;2022-12-29T12:01:51;26.40;;;15.10;;
61356;SDS011;47227;46.752;23.576;2022-12-29T12:04:18;23.70;;;14.70;;
61356;SDS011;47227;46.752;23.576;2022-12-29T12:06:56;26.40;;;15.00;;
61356;SDS011;47227;46.752;23.576;2022-12-29T12:09:29;24.40;;;14.90;;
61356;SDS011;47227;46.752;23.576;2022-12-29T12:12:01;22.10;;;13.80;;
61356;SDS011;47227;46.752;23.576;2022-12-29T12:17:25;25.50;;;15.10;;
61356;SDS011;47227;46.752;23.576;2022-12-29T12:20:10;24.10;;;13.70;;
61356;SDS011;47227;46.752;23.576;2022-12-29T12:22:51;22.80;;;14.00;;
61356;SDS011;47227;46.752;23.576;2022-12-29T12:25:38;25.00;;;14.40;;
61356;SDS011;47227;46.752;23.576;2022-12-29T12:28:15;24.20;;;14.00;;
61356;SDS011;47227;46.752;23.576;2022-12-29T12:30:59;21.50;;;14.30;;
61356;SDS011;47227;46.752;23.576;2022-12-29T12:33:30;25.50;;;14.60;;
61356;SDS011;47227;46.752;23.576;2022-12-29T12:39:02;27.00;;;16.10;;
61356;SDS011;47227;46.752;23.576;2022-12-29T12:41:43;26.80;;;15.90;;
61356;SDS011;47227;46.752;23.576;2022-12-29T12:44:29;27.40;;;16.00;;
61356;SDS011;47227;46.752;23.576;2022-12-29T12:47:23;25.20;;;15.10;;
61356;SDS011;47227;46.752;23.576;2022-12-29T12:50:08;30.00;;;16.20;;
61356;SDS011;47227;46.752;23.576;2022-12-29T12:52:58;25.80;;;15.70;;
61356;SDS011;47227;46.752;23.576;2022-12-29T12:55:46;20.70;;;15.00;;
61356;SDS011;47227;46.752;23.576;2022-12-29T12:58:35;31.10;;;17.40;;
61356;SDS011;47227;46.752;23.576;2022-12-29T13:01:18;31.20;;;15.80;;
61356;SDS011;47227;46.752;23.576;2022-12-29T13:04:08;31.30;;;14.40;;
61356;SDS011;47227;46.752;23.576;2022-12-29T13:06:58;25.40;;;13.80;;
61356;SDS011;47227;46.752;23.576;2022-12-29T13:09:45;23.40;;;13.70;;
61356;SDS011;47227;46.752;23.576;2022-12-29T13:15:12;18.00;;;12.30;;
61356;SDS011;47227;46.752;23.576;2022-12-29T13:17:56;16.80;;;12.30;;
61356;SDS011;47227;46.752;23.576;2022-12-29T13:20:39;18.90;;;12.40;;
61356;SDS011;47227;46.752;23.576;2022-12-29T13:23:16;18.60;;;11.50;;
61356;SDS011;47227;46.752;23.576;2022-12-29T13:26:01;16.80;;;11.70;;
61356;SDS011;47227;46.752;23.576;2022-12-29T13:28:44;17.00;;;12.00;;
61356;SDS011;47227;46.752;23.576;2022-12-29T13:34:17;18.70;;;12.30;;
61356;SDS011;47227;46.752;23.576;2022-12-29T13:36:57;17.90;;;12.00;;
61356;SDS011;47227;46.752;23.576;2022-12-29T13:39:27;23.40;;;13.60;;
61356;SDS011;47227;46.752;23.576;2022-12-29T13:41:59;22.00;;;12.80;;
61356;SDS011;47227;46.752;23.576;2022-12-29T13:44:30;20.30;;;12.00;;
61356;SDS011;47227;46.752;23.576;2022-12-29T13:47:06;18.80;;;12.70;;
61356;SDS011;47227;46.752;23.576;2022-12-29T13:49:48;19.40;;;11.60;;
61356;SDS011;47227;46.752;23.576;2022-12-29T13:55:02;18.70;;;11.90;;
61356;SDS011;47227;46.752;23.576;2022-12-29T13:57:48;19.50;;;13.10;;
61356;SDS011;47227;46.752;23.576;2022-12-29T14:00:25;18.20;;;13.20;;
61356;SDS011;47227;46.752;23.576;2022-12-29T14:03:11;21.60;;;13.60;;
61356;SDS011;47227;46.752;23.576;2022-12-29T14:06:05;21.80;;;14.40;;
61356;SDS011;47227;46.752;23.576;2022-12-29T14:08:41;25.70;;;14.50;;
61356;SDS011;47227;46.752;23.576;2022-12-29T14:11:10;28.50;;;16.50;;
61356;SDS011;47227;46.752;23.576;2022-12-29T14:13:41;26.80;;;15.40;;
61356;SDS011;47227;46.752;23.576;2022-12-29T14:16:24;29.80;;;15.70;;
61356;SDS011;47227;46.752;23.576;2022-12-29T14:18:54;27.90;;;16.40;;
61356;SDS011;47227;46.752;23.576;2022-12-29T14:21:24;33.10;;;17.00;;
61356;SDS011;47227;46.752;23.576;2022-12-29T14:24:02;26.40;;;16.30;;
61356;SDS011;47227;46.752;23.576;2022-12-29T14:26:55;28.70;;;16.50;;
61356;SDS011;47227;46.752;23.576;2022-12-29T14:38:12;31.80;;;18.10;;
61356;SDS011;47227;46.752;23.576;2022-12-29T14:40:43;35.20;;;17.20;;
61356;SDS011;47227;46.752;23.576;2022-12-29T14:43:12;35.00;;;18.90;;
61356;SDS011;47227;46.752;23.576;2022-12-29T14:45:44;35.20;;;18.30;;
61356;SDS011;47227;46.752;23.576;2022-12-29T14:48:29;33.50;;;17.20;;
61356;SDS011;47227;46.752;23.576;2022-12-29T14:57:09;34.20;;;17.90;;
61356;SDS011;47227;46.752;23.576;2022-12-29T14:59:45;40.20;;;18.80;;
61356;SDS011;47227;46.752;23.576;2022-12-29T15:02:16;29.90;;;18.70;;
61356;SDS011;47227;46.752;23.576;2022-12-29T15:04:48;32.90;;;19.40;;
61356;SDS011;47227;46.752;23.576;2022-12-29T15:07:15;37.90;;;20.70;;
61356;SDS011;47227;46.752;23.576;2022-12-29T15:09:45;35.30;;;20.30;;
61356;SDS011;47227;46.752;23.576;2022-12-29T15:12:25;36.10;;;20.80;;
61356;SDS011;47227;46.752;23.576;2022-12-29T15:17:51;33.60;;;20.30;;
61356;SDS011;47227;46.752;23.576;2022-12-29T15:20:23;38.50;;;20.40;;
61356;SDS011;47227;46.752;23.576;2022-12-29T15:22:54;31.80;;;20.80;;
61356;SDS011;47227;46.752;23.576;2022-12-29T15:25:23;34.10;;;20.30;;
61356;SDS011;47227;46.752;23.576;2022-12-29T15:27:52;39.80;;;22.30;;
61356;SDS011;47227;46.752;23.576;2022-12-29T15:30:24;34.60;;;22.40;;
61356;SDS011;47227;46.752;23.576;2022-12-29T15:32:51;41.90;;;22.90;;
61356;SDS011;47227;46.752;23.576;2022-12-29T15:35:28;41.90;;;23.10;;
61356;SDS011;47227;46.752;23.576;2022-12-29T15:37:57;37.10;;;23.70;;